sensor_id;sensor_type;location;lat;lon;timestamp;temperature;humidity
74420;DHT22;62855;50.718;-2.460;2023-02-15T00:00:07;40.46;83.00
74420;DHT22;62855;50.718;-2.460;2023-02-15T00:01:07;40.46;84.00
74420;DHT22;62855;50.718;-2.460;2023-02-15T00:04:06;40.46;84.00
74420;DHT22;62855;50.718;-2.460;2023-02-15T00:07:06;40.46;84.00
74420;DHT22;62855;50.718;-2.460;2023-02-15T00:10:07;40.46;84.00
74420;DHT22;62855;50.718;-2.460;2023-02-15T00:13:06;40.46;84.00
74420;DHT22;62855;50.718;-2.460;2023-02-15T00:16:07;40.28;84.00
74420;DHT22;62855;50.718;-2.460;2023-02-15T00:19:08;40.28;84.00
74420;DHT22;62855;50.718;-2.460;2023-02-15T00:20:07;40.28;84.00
74420;DHT22;62855;50.718;-2.460;2023-02-15T00:23:06;40.28;84.00
74420;DHT22;62855;50.718;-2.460;2023-02-15T00:26:08;40.10;84.00
74420;DHT22;62855;50.718;-2.460;2023-02-15T00:29:07;40.10;84.00
74420;DHT22;62855;50.718;-2.460;2023-02-15T00:31:08;40.10;84.00
74420;DHT22;62855;50.718;-2.460;2023-02-15T00:34:10;40.10;84.00
74420;DHT22;62855;50.718;-2.460;2023-02-15T00:37:06;40.10;84.00
74420;DHT22;62855;50.718;-2.460;2023-02-15T00:40:07;40.10;84.00
74420;DHT22;62855;50.718;-2.460;2023-02-15T00:43:06;40.10;84.00
74420;DHT22;62855;50.718;-2.460;2023-02-15T00:46:06;40.10;84.00
74420;DHT22;62855;50.718;-2.460;2023-02-15T00:49:06;40.10;84.00
74420;DHT22;62855;50.718;-2.460;2023-02-15T00:50:07;40.10;84.00
74420;DHT22;62855;50.718;-2.460;2023-02-15T00:53:06;40.10;84.00
74420;DHT22;62855;50.718;-2.460;2023-02-15T00:54:07;40.10;84.00
74420;DHT22;62855;50.718;-2.460;2023-02-15T00:57:06;40.10;84.00
74420;DHT22;62855;50.718;-2.460;2023-02-15T01:00:07;40.10;84.00
74420;DHT22;62855;50.718;-2.460;2023-02-15T01:03:06;40.10;84.00
74420;DHT22;62855;50.718;-2.460;2023-02-15T01:06:06;39.92;84.00
74420;DHT22;62855;50.718;-2.460;2023-02-15T01:09:06;39.74;84.00
74420;DHT22;62855;50.718;-2.460;2023-02-15T01:10:07;39.74;84.00
74420;DHT22;62855;50.718;-2.460;2023-02-15T01:11:09;39.56;84.00
74420;DHT22;62855;50.718;-2.460;2023-02-15T01:14:06;39.38;83.00
74420;DHT22;62855;50.718;-2.460;2023-02-15T01:17:06;39.38;83.00
74420;DHT22;62855;50.718;-2.460;2023-02-15T01:20:07;39.20;83.00
74420;DHT22;62855;50.718;-2.460;2023-02-15T01:23:07;39.02;83.00
74420;DHT22;62855;50.718;-2.460;2023-02-15T01:26:06;39.02;83.00
74420;DHT22;62855;50.718;-2.460;2023-02-15T01:29:06;39.02;83.00
74420;DHT22;62855;50.718;-2.460;2023-02-15T01:32:06;39.02;83.00
74420;DHT22;62855;50.718;-2.460;2023-02-15T01:33:06;39.02;83.00
74420;DHT22;62855;50.718;-2.460;2023-02-15T01:36:06;38.84;83.00
74420;DHT22;62855;50.718;-2.460;2023-02-15T01:37:06;38.84;83.00
74420;DHT22;62855;50.718;-2.460;2023-02-15T01:38:06;38.84;83.00
74420;DHT22;62855;50.718;-2.460;2023-02-15T01:39:06;38.84;83.00
74420;DHT22;62855;50.718;-2.460;2023-02-15T01:42:09;38.84;83.00
74420;DHT22;62855;50.718;-2.460;2023-02-15T01:45:17;38.84;83.00
74420;DHT22;62855;50.718;-2.460;2023-02-15T01:48:14;39.02;83.00
74420;DHT22;62855;50.718;-2.460;2023-02-15T01:51:06;39.02;83.00
74420;DHT22;62855;50.718;-2.460;2023-02-15T01:54:10;39.02;83.00
74420;DHT22;62855;50.718;-2.460;2023-02-15T01:57:09;38.84;83.00
74420;DHT22;62855;50.718;-2.460;2023-02-15T02:00:07;38.84;83.00
74420;DHT22;62855;50.718;-2.460;2023-02-15T02:03:06;38.84;83.00
74420;DHT22;62855;50.718;-2.460;2023-02-15T02:04:11;38.66;83.00
74420;DHT22;62855;50.718;-2.460;2023-02-15T02:07:07;38.66;83.00
74420;DHT22;62855;50.718;-2.460;2023-02-15T02:10:10;38.84;84.00
74420;DHT22;62855;50.718;-2.460;2023-02-15T02:13:06;39.02;84.00
74420;DHT22;62855;50.718;-2.460;2023-02-15T02:16:11;39.02;84.00
74420;DHT22;62855;50.718;-2.460;2023-02-15T02:19:20;38.84;84.00
74420;DHT22;62855;50.718;-2.460;2023-02-15T02:28:18;38.66;84.00
74420;DHT22;62855;50.718;-2.460;2023-02-15T02:29:22;38.66;84.00
74420;DHT22;62855;50.718;-2.460;2023-02-15T02:32:26;38.48;83.00
74420;DHT22;62855;50.718;-2.460;2023-02-15T02:35:10;38.48;83.00
74420;DHT22;62855;50.718;-2.460;2023-02-15T02:38:10;38.30;83.00
74420;DHT22;62855;50.718;-2.460;2023-02-15T02:41:13;38.30;83.00
74420;DHT22;62855;50.718;-2.460;2023-02-15T02:44:13;38.30;83.00
74420;DHT22;62855;50.718;-2.460;2023-02-15T02:47:09;38.30;83.00
74420;DHT22;62855;50.718;-2.460;2023-02-15T02:50:12;38.30;83.00
74420;DHT22;62855;50.718;-2.460;2023-02-15T02:53:08;38.30;83.00
74420;DHT22;62855;50.718;-2.460;2023-02-15T02:56:11;38.30;83.00
74420;DHT22;62855;50.718;-2.460;2023-02-15T02:59:10;38.30;84.00
74420;DHT22;62855;50.718;-2.460;2023-02-15T03:02:11;38.30;84.00
74420;DHT22;62855;50.718;-2.460;2023-02-15T03:05:09;38.30;84.00
74420;DHT22;62855;50.718;-2.460;2023-02-15T03:08:07;38.30;84.00
74420;DHT22;62855;50.718;-2.460;2023-02-15T03:11:06;38.48;84.00
74420;DHT22;62855;50.718;-2.460;2023-02-15T03:14:06;38.66;84.00
74420;DHT22;62855;50.718;-2.460;2023-02-15T03:17:07;39.02;84.00
74420;DHT22;62855;50.718;-2.460;2023-02-15T03:20:10;39.56;84.00
74420;DHT22;62855;50.718;-2.460;2023-02-15T03:23:07;39.92;85.00
74420;DHT22;62855;50.718;-2.460;2023-02-15T03:26:07;40.28;85.00
74420;DHT22;62855;50.718;-2.460;2023-02-15T03:29:06;40.64;85.00
74420;DHT22;62855;50.718;-2.460;2023-02-15T03:32:08;40.64;85.00
74420;DHT22;62855;50.718;-2.460;2023-02-15T03:35:06;40.64;85.00
74420;DHT22;62855;50.718;-2.460;2023-02-15T03:38:07;40.64;85.00
74420;DHT22;62855;50.718;-2.460;2023-02-15T03:41:07;40.64;85.00
74420;DHT22;62855;50.718;-2.460;2023-02-15T03:44:11;40.64;85.00
74420;DHT22;62855;50.718;-2.460;2023-02-15T03:47:10;40.64;85.00
74420;DHT22;62855;50.718;-2.460;2023-02-15T03:50:09;40.64;86.00
74420;DHT22;62855;50.718;-2.460;2023-02-15T03:53:10;40.64;86.00
74420;DHT22;62855;50.718;-2.460;2023-02-15T03:56:06;40.82;86.00
74420;DHT22;62855;50.718;-2.460;2023-02-15T03:59:06;40.82;86.00
74420;DHT22;62855;50.718;-2.460;2023-02-15T04:00:13;41.00;86.00
74420;DHT22;62855;50.718;-2.460;2023-02-15T04:03:12;40.82;86.00
74420;DHT22;62855;50.718;-2.460;2023-02-15T04:06:06;40.10;85.00
74420;DHT22;62855;50.718;-2.460;2023-02-15T04:09:05;39.56;85.00
74420;DHT22;62855;50.718;-2.460;2023-02-15T04:12:07;39.38;85.00
74420;DHT22;62855;50.718;-2.460;2023-02-15T04:15:07;39.38;85.00
74420;DHT22;62855;50.718;-2.460;2023-02-15T04:18:06;39.38;85.00
74420;DHT22;62855;50.718;-2.460;2023-02-15T04:21:06;39.38;85.00
74420;DHT22;62855;50.718;-2.460;2023-02-15T04:24:07;39.38;85.00
74420;DHT22;62855;50.718;-2.460;2023-02-15T04:27:06;39.56;85.00
74420;DHT22;62855;50.718;-2.460;2023-02-15T04:30:09;39.56;85.00
74420;DHT22;62855;50.718;-2.460;2023-02-15T04:33:06;39.56;85.00
74420;DHT22;62855;50.718;-2.460;2023-02-15T04:36:06;39.56;85.00
74420;DHT22;62855;50.718;-2.460;2023-02-15T04:39:06;39.56;85.00
74420;DHT22;62855;50.718;-2.460;2023-02-15T04:40:08;39.56;85.00
74420;DHT22;62855;50.718;-2.460;2023-02-15T04:43:06;39.74;85.00
74420;DHT22;62855;50.718;-2.460;2023-02-15T04:44:07;39.74;85.00
74420;DHT22;62855;50.718;-2.460;2023-02-15T04:47:06;39.74;85.00
74420;DHT22;62855;50.718;-2.460;2023-02-15T04:50:07;39.74;85.00
74420;DHT22;62855;50.718;-2.460;2023-02-15T04:53:06;39.74;86.00
74420;DHT22;62855;50.718;-2.460;2023-02-15T04:56:06;39.74;86.00
74420;DHT22;62855;50.718;-2.460;2023-02-15T04:57:06;39.74;86.00
74420;DHT22;62855;50.718;-2.460;2023-02-15T04:58:06;39.74;86.00
74420;DHT22;62855;50.718;-2.460;2023-02-15T04:59:08;39.74;86.00
74420;DHT22;62855;50.718;-2.460;2023-02-15T05:02:06;39.74;86.00
74420;DHT22;62855;50.718;-2.460;2023-02-15T05:05:06;39.74;86.00
74420;DHT22;62855;50.718;-2.460;2023-02-15T05:06:06;39.74;86.00
74420;DHT22;62855;50.718;-2.460;2023-02-15T05:09:06;39.74;86.00
74420;DHT22;62855;50.718;-2.460;2023-02-15T05:10:07;39.92;86.00
74420;DHT22;62855;50.718;-2.460;2023-02-15T05:13:06;39.92;86.00
74420;DHT22;62855;50.718;-2.460;2023-02-15T05:14:07;40.10;86.00
74420;DHT22;62855;50.718;-2.460;2023-02-15T05:17:06;40.10;86.00
74420;DHT22;62855;50.718;-2.460;2023-02-15T05:20:07;40.46;86.00
74420;DHT22;62855;50.718;-2.460;2023-02-15T05:23:05;40.64;86.00
74420;DHT22;62855;50.718;-2.460;2023-02-15T05:26:07;40.82;86.00
74420;DHT22;62855;50.718;-2.460;2023-02-15T05:29:06;41.00;87.00
74420;DHT22;62855;50.718;-2.460;2023-02-15T05:32:06;41.18;87.00
74420;DHT22;62855;50.718;-2.460;2023-02-15T05:35:06;41.36;87.00
74420;DHT22;62855;50.718;-2.460;2023-02-15T05:36:07;41.36;87.00
74420;DHT22;62855;50.718;-2.460;2023-02-15T05:39:05;41.36;87.00
74420;DHT22;62855;50.718;-2.460;2023-02-15T05:42:06;41.36;87.00
74420;DHT22;62855;50.718;-2.460;2023-02-15T05:43:06;41.36;87.00
74420;DHT22;62855;50.718;-2.460;2023-02-15T05:44:06;41.36;87.00
74420;DHT22;62855;50.718;-2.460;2023-02-15T05:47:06;41.36;87.00
74420;DHT22;62855;50.718;-2.460;2023-02-15T05:48:06;41.36;87.00
74420;DHT22;62855;50.718;-2.460;2023-02-15T05:51:08;41.36;87.00
74420;DHT22;62855;50.718;-2.460;2023-02-15T05:54:06;41.36;87.00
74420;DHT22;62855;50.718;-2.460;2023-02-15T05:55:07;41.18;87.00
74420;DHT22;62855;50.718;-2.460;2023-02-15T05:58:06;41.18;87.00
74420;DHT22;62855;50.718;-2.460;2023-02-15T05:59:06;41.18;87.00
74420;DHT22;62855;50.718;-2.460;2023-02-15T06:00:07;41.18;87.00
74420;DHT22;62855;50.718;-2.460;2023-02-15T06:03:06;41.00;87.00
74420;DHT22;62855;50.718;-2.460;2023-02-15T06:04:06;40.82;87.00
74420;DHT22;62855;50.718;-2.460;2023-02-15T06:05:07;40.82;87.00
74420;DHT22;62855;50.718;-2.460;2023-02-15T06:08:06;41.00;87.00
74420;DHT22;62855;50.718;-2.460;2023-02-15T06:11:06;41.36;87.00
74420;DHT22;62855;50.718;-2.460;2023-02-15T06:12:07;41.54;87.00
74420;DHT22;62855;50.718;-2.460;2023-02-15T06:15:07;41.72;87.00
74420;DHT22;62855;50.718;-2.460;2023-02-15T06:18:06;41.90;88.00
74420;DHT22;62855;50.718;-2.460;2023-02-15T06:21:06;42.08;88.00
74420;DHT22;62855;50.718;-2.460;2023-02-15T06:24:07;42.26;88.00
74420;DHT22;62855;50.718;-2.460;2023-02-15T06:27:06;42.26;88.00
74420;DHT22;62855;50.718;-2.460;2023-02-15T06:30:07;42.26;88.00
74420;DHT22;62855;50.718;-2.460;2023-02-15T06:33:06;42.26;88.00
74420;DHT22;62855;50.718;-2.460;2023-02-15T06:36:06;42.44;88.00
74420;DHT22;62855;50.718;-2.460;2023-02-15T06:39:06;42.44;88.00
74420;DHT22;62855;50.718;-2.460;2023-02-15T06:40:08;42.44;88.00
74420;DHT22;62855;50.718;-2.460;2023-02-15T06:41:06;42.44;88.00
74420;DHT22;62855;50.718;-2.460;2023-02-15T06:42:06;42.44;88.00
74420;DHT22;62855;50.718;-2.460;2023-02-15T06:43:06;42.44;88.00
74420;DHT22;62855;50.718;-2.460;2023-02-15T06:44:06;42.26;88.00
74420;DHT22;62855;50.718;-2.460;2023-02-15T06:47:05;42.26;88.00
74420;DHT22;62855;50.718;-2.460;2023-02-15T06:50:07;42.44;88.00
74420;DHT22;62855;50.718;-2.460;2023-02-15T06:53:06;42.62;88.00
74420;DHT22;62855;50.718;-2.460;2023-02-15T06:54:06;42.62;88.00
74420;DHT22;62855;50.718;-2.460;2023-02-15T06:55:07;42.62;88.00
74420;DHT22;62855;50.718;-2.460;2023-02-15T06:58:06;42.44;88.00
74420;DHT22;62855;50.718;-2.460;2023-02-15T07:01:07;42.44;88.00
74420;DHT22;62855;50.718;-2.460;2023-02-15T07:04:06;42.44;88.00
74420;DHT22;62855;50.718;-2.460;2023-02-15T07:05:07;42.26;88.00
74420;DHT22;62855;50.718;-2.460;2023-02-15T07:08:06;42.26;88.00
74420;DHT22;62855;50.718;-2.460;2023-02-15T07:09:06;42.26;88.00
74420;DHT22;62855;50.718;-2.460;2023-02-15T07:12:06;42.26;88.00
74420;DHT22;62855;50.718;-2.460;2023-02-15T07:13:06;42.26;88.00
74420;DHT22;62855;50.718;-2.460;2023-02-15T07:14:06;42.26;88.00
74420;DHT22;62855;50.718;-2.460;2023-02-15T07:15:07;42.26;88.00
74420;DHT22;62855;50.718;-2.460;2023-02-15T07:18:06;42.44;88.00
74420;DHT22;62855;50.718;-2.460;2023-02-15T07:19:07;42.44;88.00
74420;DHT22;62855;50.718;-2.460;2023-02-15T07:22:06;42.62;89.00
74420;DHT22;62855;50.718;-2.460;2023-02-15T07:25:08;42.80;89.00
74420;DHT22;62855;50.718;-2.460;2023-02-15T07:28:06;42.98;89.00
74420;DHT22;62855;50.718;-2.460;2023-02-15T07:31:06;42.98;89.00
74420;DHT22;62855;50.718;-2.460;2023-02-15T07:34:06;43.16;89.00
74420;DHT22;62855;50.718;-2.460;2023-02-15T07:35:07;43.34;89.00
74420;DHT22;62855;50.718;-2.460;2023-02-15T07:38:06;43.52;89.00
74420;DHT22;62855;50.718;-2.460;2023-02-15T07:41:09;43.52;89.00
74420;DHT22;62855;50.718;-2.460;2023-02-15T07:44:11;43.88;89.00
74420;DHT22;62855;50.718;-2.460;2023-02-15T07:47:06;43.88;90.00
74420;DHT22;62855;50.718;-2.460;2023-02-15T07:48:06;43.88;90.00
74420;DHT22;62855;50.718;-2.460;2023-02-15T07:51:09;44.06;90.00
74420;DHT22;62855;50.718;-2.460;2023-02-15T07:54:06;44.24;90.00
74420;DHT22;62855;50.718;-2.460;2023-02-15T07:55:07;44.24;90.00
74420;DHT22;62855;50.718;-2.460;2023-02-15T07:58:06;44.42;84.00
74420;DHT22;62855;50.718;-2.460;2023-02-15T07:59:06;44.42;84.00
74420;DHT22;62855;50.718;-2.460;2023-02-15T08:00:07;44.42;84.00
74420;DHT22;62855;50.718;-2.460;2023-02-15T08:03:05;44.60;84.00
74420;DHT22;62855;50.718;-2.460;2023-02-15T08:06:06;44.60;84.00
74420;DHT22;62855;50.718;-2.460;2023-02-15T08:07:06;44.60;84.00
74420;DHT22;62855;50.718;-2.460;2023-02-15T08:10:06;44.78;84.00
74420;DHT22;62855;50.718;-2.460;2023-02-15T08:13:06;44.78;84.00
74420;DHT22;62855;50.718;-2.460;2023-02-15T08:14:10;44.78;84.00
74420;DHT22;62855;50.718;-2.460;2023-02-15T08:17:06;44.78;84.00
74420;DHT22;62855;50.718;-2.460;2023-02-15T08:20:06;44.96;84.00
74420;DHT22;62855;50.718;-2.460;2023-02-15T08:23:06;44.96;84.00
74420;DHT22;62855;50.718;-2.460;2023-02-15T08:24:08;44.96;84.00
74420;DHT22;62855;50.718;-2.460;2023-02-15T08:27:07;44.96;85.00
74420;DHT22;62855;50.718;-2.460;2023-02-15T08:30:07;44.96;85.00
74420;DHT22;62855;50.718;-2.460;2023-02-15T08:33:06;45.14;85.00
74420;DHT22;62855;50.718;-2.460;2023-02-15T08:36:08;45.14;85.00
74420;DHT22;62855;50.718;-2.460;2023-02-15T08:39:06;45.32;85.00
74420;DHT22;62855;50.718;-2.460;2023-02-15T08:42:06;45.50;85.00
74420;DHT22;62855;50.718;-2.460;2023-02-15T08:45:07;45.50;85.00
74420;DHT22;62855;50.718;-2.460;2023-02-15T08:48:06;45.68;85.00
74420;DHT22;62855;50.718;-2.460;2023-02-15T08:51:08;45.68;85.00
74420;DHT22;62855;50.718;-2.460;2023-02-15T08:52:06;45.86;85.00
74420;DHT22;62855;50.718;-2.460;2023-02-15T08:53:06;45.86;85.00
74420;DHT22;62855;50.718;-2.460;2023-02-15T08:54:12;45.86;85.00
74420;DHT22;62855;50.718;-2.460;2023-02-15T08:57:06;46.04;85.00
74420;DHT22;62855;50.718;-2.460;2023-02-15T09:00:07;46.22;85.00
74420;DHT22;62855;50.718;-2.460;2023-02-15T09:03:06;46.40;85.00
74420;DHT22;62855;50.718;-2.460;2023-02-15T09:04:08;46.58;85.00
74420;DHT22;62855;50.718;-2.460;2023-02-15T09:05:07;46.58;85.00
74420;DHT22;62855;50.718;-2.460;2023-02-15T09:08:06;46.76;85.00
74420;DHT22;62855;50.718;-2.460;2023-02-15T09:11:09;46.94;86.00
74420;DHT22;62855;50.718;-2.460;2023-02-15T09:14:08;47.12;86.00
74420;DHT22;62855;50.718;-2.460;2023-02-15T09:17:06;47.12;86.00
74420;DHT22;62855;50.718;-2.460;2023-02-15T09:20:07;47.30;86.00
74420;DHT22;62855;50.718;-2.460;2023-02-15T09:23:06;47.48;86.00
74420;DHT22;62855;50.718;-2.460;2023-02-15T09:26:07;47.48;86.00
74420;DHT22;62855;50.718;-2.460;2023-02-15T09:27:06;47.66;86.00
74420;DHT22;62855;50.718;-2.460;2023-02-15T09:28:06;47.66;86.00
74420;DHT22;62855;50.718;-2.460;2023-02-15T09:29:07;47.66;86.00
74420;DHT22;62855;50.718;-2.460;2023-02-15T09:32:06;47.84;86.00
74420;DHT22;62855;50.718;-2.460;2023-02-15T09:35:07;47.84;85.00
74420;DHT22;62855;50.718;-2.460;2023-02-15T09:38:06;47.84;85.00
74420;DHT22;62855;50.718;-2.460;2023-02-15T09:39:09;47.84;85.00
74420;DHT22;62855;50.718;-2.460;2023-02-15T09:42:20;47.84;85.00
74420;DHT22;62855;50.718;-2.460;2023-02-15T09:45:16;47.84;85.00
74420;DHT22;62855;50.718;-2.460;2023-02-15T09:48:22;48.02;85.00
74420;DHT22;62855;50.718;-2.460;2023-02-15T09:51:18;48.02;84.00
74420;DHT22;62855;50.718;-2.460;2023-02-15T09:54:16;48.02;84.00
74420;DHT22;62855;50.718;-2.460;2023-02-15T09:57:12;48.20;84.00
74420;DHT22;62855;50.718;-2.460;2023-02-15T10:00:12;48.20;83.00
74420;DHT22;62855;50.718;-2.460;2023-02-15T10:03:16;48.38;83.00
74420;DHT22;62855;50.718;-2.460;2023-02-15T10:06:19;48.38;83.00
74420;DHT22;62855;50.718;-2.460;2023-02-15T10:09:14;48.38;82.00
74420;DHT22;62855;50.718;-2.460;2023-02-15T10:12:17;48.56;82.00
74420;DHT22;62855;50.718;-2.460;2023-02-15T10:15:18;48.56;82.00
74420;DHT22;62855;50.718;-2.460;2023-02-15T10:16:15;48.56;82.00
74420;DHT22;62855;50.718;-2.460;2023-02-15T10:19:13;48.74;81.00
74420;DHT22;62855;50.718;-2.460;2023-02-15T10:22:15;48.74;81.00
74420;DHT22;62855;50.718;-2.460;2023-02-15T10:25:18;48.74;81.00
74420;DHT22;62855;50.718;-2.460;2023-02-15T10:26:12;48.74;81.00
74420;DHT22;62855;50.718;-2.460;2023-02-15T10:29:09;48.74;80.00
74420;DHT22;62855;50.718;-2.460;2023-02-15T10:32:16;48.74;80.00
74420;DHT22;62855;50.718;-2.460;2023-02-15T10:35:13;48.92;80.00
74420;DHT22;62855;50.718;-2.460;2023-02-15T10:38:13;48.92;80.00
74420;DHT22;62855;50.718;-2.460;2023-02-15T10:41:17;49.10;80.00
74420;DHT22;62855;50.718;-2.460;2023-02-15T10:44:17;49.10;80.00
74420;DHT22;62855;50.718;-2.460;2023-02-15T10:47:20;49.10;80.00
74420;DHT22;62855;50.718;-2.460;2023-02-15T10:48:18;49.10;80.00
74420;DHT22;62855;50.718;-2.460;2023-02-15T10:49:15;49.10;80.00
74420;DHT22;62855;50.718;-2.460;2023-02-15T10:52:15;49.10;79.00
74420;DHT22;62855;50.718;-2.460;2023-02-15T10:55:11;49.10;79.00
74420;DHT22;62855;50.718;-2.460;2023-02-15T10:58:13;49.10;78.00
74420;DHT22;62855;50.718;-2.460;2023-02-15T11:01:14;49.28;78.00
74420;DHT22;62855;50.718;-2.460;2023-02-15T11:04:17;49.28;78.00
74420;DHT22;62855;50.718;-2.460;2023-02-15T11:07:11;49.28;78.00
74420;DHT22;62855;50.718;-2.460;2023-02-15T11:10:14;49.46;79.00
74420;DHT22;62855;50.718;-2.460;2023-02-15T11:13:09;49.46;79.00
74420;DHT22;62855;50.718;-2.460;2023-02-15T11:16:11;49.64;79.00
74420;DHT22;62855;50.718;-2.460;2023-02-15T11:19:10;49.64;79.00
74420;DHT22;62855;50.718;-2.460;2023-02-15T11:22:09;49.82;79.00
74420;DHT22;62855;50.718;-2.460;2023-02-15T11:25:14;50.00;78.00
74420;DHT22;62855;50.718;-2.460;2023-02-15T11:28:17;50.36;78.00
74420;DHT22;62855;50.718;-2.460;2023-02-15T11:31:13;50.54;78.00
74420;DHT22;62855;50.718;-2.460;2023-02-15T11:34:13;50.90;78.00
74420;DHT22;62855;50.718;-2.460;2023-02-15T11:37:09;51.26;78.00
74420;DHT22;62855;50.718;-2.460;2023-02-15T11:40:15;51.62;78.00
74420;DHT22;62855;50.718;-2.460;2023-02-15T11:43:11;51.80;77.00
74420;DHT22;62855;50.718;-2.460;2023-02-15T11:46:07;51.98;76.00
74420;DHT22;62855;50.718;-2.460;2023-02-15T11:49:19;52.16;76.00
74420;DHT22;62855;50.718;-2.460;2023-02-15T11:52:07;52.34;75.00
74420;DHT22;62855;50.718;-2.460;2023-02-15T11:55:11;52.52;75.00
74420;DHT22;62855;50.718;-2.460;2023-02-15T11:58:15;52.52;74.00
74420;DHT22;62855;50.718;-2.460;2023-02-15T12:01:11;52.52;74.00
74420;DHT22;62855;50.718;-2.460;2023-02-15T12:04:14;52.70;73.00
74420;DHT22;62855;50.718;-2.460;2023-02-15T12:07:13;52.70;73.00
74420;DHT22;62855;50.718;-2.460;2023-02-15T12:10:17;52.70;73.00
74420;DHT22;62855;50.718;-2.460;2023-02-15T12:13:11;52.70;73.00
74420;DHT22;62855;50.718;-2.460;2023-02-15T12:16:11;52.70;73.00
74420;DHT22;62855;50.718;-2.460;2023-02-15T12:19:24;52.70;73.00
74420;DHT22;62855;50.718;-2.460;2023-02-15T12:31:10;52.70;73.00
74420;DHT22;62855;50.718;-2.460;2023-02-15T12:34:11;52.88;73.00
74420;DHT22;62855;50.718;-2.460;2023-02-15T12:37:10;52.88;73.00
74420;DHT22;62855;50.718;-2.460;2023-02-15T12:46:21;53.06;73.00
74420;DHT22;62855;50.718;-2.460;2023-02-15T12:49:17;53.06;73.00
74420;DHT22;62855;50.718;-2.460;2023-02-15T12:55:20;53.24;72.00
74420;DHT22;62855;50.718;-2.460;2023-02-15T12:58:08;53.06;72.00
74420;DHT22;62855;50.718;-2.460;2023-02-15T13:01:12;53.06;72.00
74420;DHT22;62855;50.718;-2.460;2023-02-15T13:04:14;53.06;72.00
74420;DHT22;62855;50.718;-2.460;2023-02-15T13:07:10;53.06;72.00
74420;DHT22;62855;50.718;-2.460;2023-02-15T13:10:21;53.24;72.00
74420;DHT22;62855;50.718;-2.460;2023-02-15T13:13:10;53.42;70.00
74420;DHT22;62855;50.718;-2.460;2023-02-15T13:16:10;53.42;70.00
74420;DHT22;62855;50.718;-2.460;2023-02-15T13:19:10;53.42;70.00
74420;DHT22;62855;50.718;-2.460;2023-02-15T13:22:10;53.42;70.00
74420;DHT22;62855;50.718;-2.460;2023-02-15T13:25:12;53.60;70.00
74420;DHT22;62855;50.718;-2.460;2023-02-15T13:28:11;53.60;70.00
74420;DHT22;62855;50.718;-2.460;2023-02-15T13:31:12;53.78;70.00
74420;DHT22;62855;50.718;-2.460;2023-02-15T13:34:10;53.78;70.00
74420;DHT22;62855;50.718;-2.460;2023-02-15T13:37:13;53.78;70.00
74420;DHT22;62855;50.718;-2.460;2023-02-15T13:40:10;53.78;70.00
74420;DHT22;62855;50.718;-2.460;2023-02-15T13:43:19;53.96;70.00
74420;DHT22;62855;50.718;-2.460;2023-02-15T13:46:15;54.14;70.00
74420;DHT22;62855;50.718;-2.460;2023-02-15T13:49:17;54.32;70.00
74420;DHT22;62855;50.718;-2.460;2023-02-15T13:52:15;54.32;69.00
74420;DHT22;62855;50.718;-2.460;2023-02-15T13:55:19;54.32;69.00
74420;DHT22;62855;50.718;-2.460;2023-02-15T13:58:21;54.14;69.00
74420;DHT22;62855;50.718;-2.460;2023-02-15T14:01:10;53.96;69.00
74420;DHT22;62855;50.718;-2.460;2023-02-15T14:04:17;53.78;69.00
74420;DHT22;62855;50.718;-2.460;2023-02-15T14:07:16;53.60;69.00
74420;DHT22;62855;50.718;-2.460;2023-02-15T14:10:21;53.60;69.00
74420;DHT22;62855;50.718;-2.460;2023-02-15T14:16:12;53.42;70.00
74420;DHT22;62855;50.718;-2.460;2023-02-15T14:19:16;53.42;70.00
74420;DHT22;62855;50.718;-2.460;2023-02-15T14:22:12;53.42;70.00
74420;DHT22;62855;50.718;-2.460;2023-02-15T14:25:15;53.42;70.00
74420;DHT22;62855;50.718;-2.460;2023-02-15T14:28:09;53.42;70.00
74420;DHT22;62855;50.718;-2.460;2023-02-15T14:31:09;53.24;72.00
74420;DHT22;62855;50.718;-2.460;2023-02-15T14:34:17;53.06;72.00
74420;DHT22;62855;50.718;-2.460;2023-02-15T14:37:06;52.70;72.00
74420;DHT22;62855;50.718;-2.460;2023-02-15T14:40:15;52.34;72.00
74420;DHT22;62855;50.718;-2.460;2023-02-15T14:43:09;52.16;72.00
74420;DHT22;62855;50.718;-2.460;2023-02-15T14:46:11;51.98;73.00
74420;DHT22;62855;50.718;-2.460;2023-02-15T14:49:11;51.98;73.00
74420;DHT22;62855;50.718;-2.460;2023-02-15T14:52:08;51.80;73.00
74420;DHT22;62855;50.718;-2.460;2023-02-15T14:54:07;51.80;73.00
74420;DHT22;62855;50.718;-2.460;2023-02-15T14:55:06;51.80;74.00
74420;DHT22;62855;50.718;-2.460;2023-02-15T14:58:11;51.62;74.00
74420;DHT22;62855;50.718;-2.460;2023-02-15T15:01:07;51.62;74.00
74420;DHT22;62855;50.718;-2.460;2023-02-15T15:04:08;51.62;74.00
74420;DHT22;62855;50.718;-2.460;2023-02-15T15:07:17;51.44;74.00
74420;DHT22;62855;50.718;-2.460;2023-02-15T15:14:07;51.26;75.00
74420;DHT22;62855;50.718;-2.460;2023-02-15T15:17:09;51.26;75.00
74420;DHT22;62855;50.718;-2.460;2023-02-15T15:20:11;51.08;75.00
74420;DHT22;62855;50.718;-2.460;2023-02-15T15:26:20;50.90;76.00
74420;DHT22;62855;50.718;-2.460;2023-02-15T15:29:06;50.90;77.00
74420;DHT22;62855;50.718;-2.460;2023-02-15T15:32:08;50.90;77.00
74420;DHT22;62855;50.718;-2.460;2023-02-15T15:35:17;50.72;78.00
74420;DHT22;62855;50.718;-2.460;2023-02-15T15:38:21;50.72;78.00
74420;DHT22;62855;50.718;-2.460;2023-02-15T15:41:16;50.72;79.00
74420;DHT22;62855;50.718;-2.460;2023-02-15T15:44:22;50.72;79.00
74420;DHT22;62855;50.718;-2.460;2023-02-15T15:47:17;50.72;79.00
74420;DHT22;62855;50.718;-2.460;2023-02-15T15:50:12;50.54;80.00
74420;DHT22;62855;50.718;-2.460;2023-02-15T15:53:14;50.54;80.00
74420;DHT22;62855;50.718;-2.460;2023-02-15T15:56:09;50.54;80.00
74420;DHT22;62855;50.718;-2.460;2023-02-15T15:59:13;50.36;80.00
74420;DHT22;62855;50.718;-2.460;2023-02-15T16:02:10;50.36;80.00
74420;DHT22;62855;50.718;-2.460;2023-02-15T16:05:07;50.36;80.00
74420;DHT22;62855;50.718;-2.460;2023-02-15T16:08:06;50.18;81.00
74420;DHT22;62855;50.718;-2.460;2023-02-15T16:11:12;50.18;81.00
74420;DHT22;62855;50.718;-2.460;2023-02-15T16:14:11;50.18;81.00
74420;DHT22;62855;50.718;-2.460;2023-02-15T16:17:08;50.18;81.00
74420;DHT22;62855;50.718;-2.460;2023-02-15T16:20:14;50.18;81.00
74420;DHT22;62855;50.718;-2.460;2023-02-15T16:23:16;50.00;81.00
74420;DHT22;62855;50.718;-2.460;2023-02-15T16:26:10;50.00;81.00
74420;DHT22;62855;50.718;-2.460;2023-02-15T16:29:13;50.00;81.00
74420;DHT22;62855;50.718;-2.460;2023-02-15T16:32:17;50.00;81.00
74420;DHT22;62855;50.718;-2.460;2023-02-15T16:35:13;49.82;82.00
74420;DHT22;62855;50.718;-2.460;2023-02-15T16:38:09;49.82;82.00
74420;DHT22;62855;50.718;-2.460;2023-02-15T16:41:06;49.82;82.00
74420;DHT22;62855;50.718;-2.460;2023-02-15T16:44:12;49.82;82.00
74420;DHT22;62855;50.718;-2.460;2023-02-15T16:47:14;49.82;82.00
74420;DHT22;62855;50.718;-2.460;2023-02-15T16:50:16;49.64;82.00
74420;DHT22;62855;50.718;-2.460;2023-02-15T16:53:12;49.64;82.00
74420;DHT22;62855;50.718;-2.460;2023-02-15T16:56:06;49.64;82.00